createdAt,value
2022-11-08T00:00:07.603Z,27.27
2022-11-08T00:02:34.718Z,26.33
2022-11-08T00:05:20.481Z,26.17
2022-11-08T00:08:05.870Z,28.43
2022-11-08T00:10:51.767Z,27.37
2022-11-08T00:13:37.160Z,26.67
2022-11-08T00:16:04.124Z,26.13
2022-11-08T00:18:30.971Z,28.33
2022-11-08T00:21:02.168Z,28.50
2022-11-08T00:23:29.050Z,30.27
2022-11-08T00:25:55.965Z,27.00
2022-11-08T00:28:23.004Z,27.60
2022-11-08T00:30:52.144Z,27.13
2022-11-08T00:33:19.025Z,27.40
2022-11-08T00:35:46.381Z,22.87
2022-11-08T00:38:13.342Z,26.17
2022-11-08T00:40:40.521Z,26.17
2022-11-08T00:43:07.622Z,26.63
2022-11-08T00:45:35.946Z,29.97
2022-11-08T00:48:02.814Z,27.70
2022-11-08T00:50:29.634Z,29.17
2022-11-08T00:52:56.471Z,27.30
2022-11-08T00:55:23.432Z,27.83
2022-11-08T00:58:05.188Z,26.77
2022-11-08T01:00:33.144Z,26.10
2022-11-08T01:03:19.428Z,24.67
2022-11-08T01:05:50.853Z,26.23
2022-11-08T01:08:19.999Z,27.80
2022-11-08T01:10:50.361Z,24.33
2022-11-08T01:13:18.342Z,26.27
2022-11-08T01:15:46.447Z,26.77
2022-11-08T01:18:15.418Z,25.37
2022-11-08T01:20:44.698Z,26.57
2022-11-08T01:23:13.847Z,25.00
2022-11-08T01:25:42.918Z,28.93
2022-11-08T01:28:11.114Z,27.53
2022-11-08T01:30:42.946Z,24.53
2022-11-08T01:33:10.682Z,26.40
2022-11-08T01:35:38.050Z,27.13
2022-11-08T01:38:06.269Z,28.43
2022-11-08T01:40:34.170Z,29.77
2022-11-08T01:43:38.011Z,25.67
2022-11-08T01:46:20.216Z,26.40
2022-11-08T01:48:49.716Z,25.67
2022-11-08T01:51:20.379Z,27.17
2022-11-08T01:53:47.856Z,25.23
2022-11-08T01:56:15.457Z,27.07
2022-11-08T01:58:46.642Z,26.13
2022-11-08T02:01:13.789Z,28.43
2022-11-08T02:03:41.647Z,26.20
2022-11-08T02:06:09.016Z,28.33
2022-11-08T02:08:43.550Z,27.70
2022-11-08T02:11:14.295Z,25.97
2022-11-08T02:13:41.862Z,26.87
2022-11-08T02:16:15.984Z,24.77
2022-11-08T02:18:46.053Z,26.93
2022-11-08T02:21:26.007Z,25.30
2022-11-08T02:23:56.311Z,26.07
2022-11-08T02:26:25.986Z,26.13
2022-11-08T02:28:55.020Z,26.50
2022-11-08T02:31:21.910Z,26.07
2022-11-08T02:33:49.732Z,26.80
2022-11-08T02:36:21.423Z,26.30
2022-11-08T02:38:56.161Z,26.63
2022-11-08T02:41:24.493Z,27.93
2022-11-08T02:43:51.299Z,24.23
2022-11-08T02:46:18.714Z,27.00
2022-11-08T02:48:45.946Z,27.57
2022-11-08T02:51:12.763Z,28.07
2022-11-08T02:53:39.627Z,23.60
2022-11-08T02:56:06.757Z,28.53
2022-11-08T02:58:33.629Z,26.47
2022-11-08T03:01:00.751Z,25.40
2022-11-08T03:03:27.726Z,27.40
2022-11-08T03:05:58.999Z,30.87
2022-11-08T03:08:28.560Z,28.57
2022-11-08T03:10:55.377Z,29.57
2022-11-08T03:13:22.658Z,26.60
2022-11-08T03:15:49.600Z,29.70
2022-11-08T03:18:16.750Z,25.73
2022-11-08T03:20:43.848Z,28.97
2022-11-08T03:23:10.765Z,29.23
2022-11-08T03:25:37.692Z,28.57
2022-11-08T03:28:09.088Z,26.03
2022-11-08T03:30:37.789Z,29.87
2022-11-08T03:33:04.980Z,26.70
2022-11-08T03:35:32.209Z,31.07
2022-11-08T03:37:59.061Z,28.00
2022-11-08T03:40:26.463Z,32.60
2022-11-08T03:42:55.380Z,30.23
2022-11-08T03:45:22.236Z,29.20
2022-11-08T03:47:49.120Z,28.13
2022-11-08T03:50:17.384Z,28.20
2022-11-08T03:52:49.900Z,30.03
2022-11-08T03:55:18.765Z,30.67
2022-11-08T03:57:48.652Z,29.47
2022-11-08T04:00:17.918Z,28.33
2022-11-08T04:02:45.088Z,27.77
2022-11-08T04:05:13.832Z,31.60
2022-11-08T04:07:41.013Z,32.80
2022-11-08T04:10:09.708Z,33.20
2022-11-08T04:12:59.553Z,30.57
2022-11-08T04:15:27.387Z,29.83
2022-11-08T04:18:13.612Z,30.70
2022-11-08T04:21:00.577Z,35.27
2022-11-08T04:23:28.736Z,26.97
2022-11-08T04:25:59.021Z,30.93
2022-11-08T04:28:27.903Z,29.07
2022-11-08T04:30:56.850Z,28.30
2022-11-08T04:33:24.916Z,31.63
2022-11-08T04:35:52.669Z,33.23
2022-11-08T04:38:20.692Z,29.87
2022-11-08T04:40:48.010Z,31.90
2022-11-08T04:43:17.589Z,30.98
2022-11-08T04:45:45.795Z,32.63
2022-11-08T04:48:12.767Z,30.63
2022-11-08T04:50:39.785Z,31.83
2022-11-08T04:53:06.674Z,31.43
2022-11-08T04:55:33.582Z,32.33
2022-11-08T04:58:00.493Z,31.33
2022-11-08T05:00:27.355Z,31.93
2022-11-08T05:02:54.818Z,33.40
2022-11-08T05:05:23.395Z,30.50
2022-11-08T05:07:50.277Z,35.30
2022-11-08T05:10:17.363Z,32.00
2022-11-08T05:12:44.307Z,31.50
2022-11-08T05:15:11.441Z,30.43
2022-11-08T05:17:38.425Z,30.60
2022-11-08T05:20:24.853Z,35.07
2022-11-08T05:23:10.114Z,30.43
2022-11-08T05:25:40.673Z,33.03
2022-11-08T05:28:07.545Z,30.83
2022-11-08T05:30:35.462Z,30.40
2022-11-08T05:33:03.882Z,32.17
2022-11-08T05:35:33.050Z,31.87
2022-11-08T05:37:59.937Z,33.67
2022-11-08T05:40:32.233Z,34.83
2022-11-08T05:43:02.598Z,32.37
2022-11-08T05:45:29.537Z,33.63
2022-11-08T05:47:57.845Z,32.77
2022-11-08T05:50:25.130Z,33.13
2022-11-08T05:52:55.118Z,33.47
2022-11-08T05:55:22.067Z,32.10
2022-11-08T05:57:51.794Z,36.43
2022-11-08T06:00:20.060Z,33.40
2022-11-08T06:02:47.000Z,32.03
2022-11-08T06:05:14.403Z,30.63
2022-11-08T06:07:41.242Z,33.95
2022-11-08T06:10:08.892Z,31.80
2022-11-08T06:12:35.801Z,33.17
2022-11-08T06:15:05.005Z,36.83
2022-11-08T06:17:31.877Z,33.40
2022-11-08T06:19:58.795Z,32.30
2022-11-08T06:22:26.088Z,33.30
2022-11-08T06:24:53.281Z,33.53
2022-11-08T06:27:20.226Z,31.23
2022-11-08T06:29:47.066Z,34.87
2022-11-08T06:32:13.946Z,30.93
2022-11-08T06:34:41.623Z,29.87
2022-11-08T06:37:08.652Z,31.67
2022-11-08T06:39:35.591Z,33.07
2022-11-08T06:42:02.491Z,32.03
2022-11-08T06:44:29.455Z,29.77
2022-11-08T06:46:56.387Z,31.60
2022-11-08T06:49:24.474Z,34.13
2022-11-08T06:51:52.255Z,32.07
2022-11-08T06:54:23.220Z,31.07
2022-11-08T06:56:55.788Z,33.33
2022-11-08T06:59:23.354Z,32.00
2022-11-08T07:01:51.735Z,29.90
2022-11-08T07:04:18.971Z,32.93
2022-11-08T07:06:45.878Z,33.20
2022-11-08T07:09:20.631Z,31.73
2022-11-08T07:11:51.018Z,29.23
2022-11-08T07:17:13.815Z,29.00
2022-11-08T07:19:40.710Z,33.60
2022-11-08T07:22:08.423Z,29.87
2022-11-08T07:24:35.576Z,31.27
2022-11-08T07:27:05.126Z,34.23
2022-11-08T07:29:35.415Z,31.67
2022-11-08T07:32:03.808Z,31.53
2022-11-08T07:34:32.096Z,32.30
2022-11-08T07:37:02.821Z,32.80
2022-11-08T07:39:30.695Z,28.87
2022-11-08T07:42:00.608Z,29.00
2022-11-08T07:44:30.073Z,30.80
2022-11-08T07:49:40.928Z,28.60
2022-11-08T07:52:08.351Z,25.93
2022-11-08T07:54:35.318Z,25.33
2022-11-08T07:57:02.205Z,27.17
2022-11-08T07:59:31.780Z,26.77
2022-11-08T08:02:01.990Z,24.50
2022-11-08T08:04:30.367Z,25.73
2022-11-08T08:06:58.896Z,26.53
2022-11-08T08:09:29.116Z,24.07
2022-11-08T08:11:56.080Z,24.97
2022-11-08T08:14:23.112Z,25.53
2022-11-08T08:16:50.250Z,27.77
2022-11-08T08:19:17.162Z,22.13
2022-11-08T08:21:46.917Z,25.90
2022-11-08T08:24:14.117Z,22.50
2022-11-08T08:26:40.943Z,21.30
2022-11-08T08:29:07.805Z,22.37
2022-11-08T08:31:34.768Z,24.50
2022-11-08T08:34:02.151Z,23.37
2022-11-08T08:36:29.171Z,25.50
2022-11-08T08:38:56.124Z,21.60
2022-11-08T08:41:23.131Z,22.57
2022-11-08T08:43:49.985Z,25.77
2022-11-08T08:46:17.020Z,23.83
2022-11-08T08:48:43.935Z,20.63
2022-11-08T08:51:14.639Z,22.70
2022-11-08T08:53:42.181Z,24.70
2022-11-08T08:56:10.515Z,20.80
2022-11-08T08:58:45.273Z,20.30
2022-11-08T09:01:46.020Z,22.00
2022-11-08T09:04:05.708Z,22.80
2022-11-08T09:06:32.779Z,20.45
2022-11-08T09:08:59.786Z,19.58
2022-11-08T09:11:26.729Z,19.80
2022-11-08T09:13:55.880Z,20.77
2022-11-08T09:16:24.121Z,18.58
2022-11-08T09:18:51.044Z,20.33
2022-11-08T09:21:18.485Z,19.15
2022-11-08T09:23:45.768Z,21.05
2022-11-08T09:26:20.198Z,18.42
2022-11-08T09:28:51.969Z,21.45
2022-11-08T09:31:19.833Z,18.48
2022-11-08T09:33:50.412Z,14.48
2022-11-08T09:36:17.730Z,16.27
2022-11-08T09:38:44.944Z,15.65
2022-11-08T09:41:31.124Z,16.98
2022-11-08T09:44:22.454Z,14.45
2022-11-08T09:46:58.989Z,18.00
2022-11-08T09:49:44.727Z,16.98
2022-11-08T09:52:19.263Z,18.05
2022-11-08T09:54:51.717Z,14.80
2022-11-08T09:57:30.451Z,18.70
2022-11-08T10:00:05.821Z,17.40
2022-11-08T10:02:37.035Z,14.00
2022-11-08T10:05:12.716Z,15.05
2022-11-08T10:07:53.444Z,12.65
2022-11-08T10:10:50.186Z,15.18
2022-11-08T10:13:34.394Z,16.00
2022-11-08T10:16:26.110Z,14.70
2022-11-08T10:19:01.870Z,16.63
2022-11-08T10:21:53.462Z,17.85
2022-11-08T10:24:37.519Z,15.85
2022-11-08T10:27:16.439Z,22.40
2022-11-08T10:29:45.880Z,16.10
2022-11-08T10:32:21.517Z,13.43
2022-11-08T10:35:04.346Z,13.23
2022-11-08T10:37:34.020Z,13.93
2022-11-08T10:40:24.370Z,12.57
2022-11-08T10:43:05.555Z,13.45
2022-11-08T10:45:36.132Z,12.65
2022-11-08T10:48:04.799Z,16.08
2022-11-08T10:50:52.396Z,12.85
2022-11-08T10:53:32.324Z,16.77
2022-11-08T10:56:01.885Z,14.27
2022-11-08T10:58:39.430Z,10.07
2022-11-08T11:01:07.999Z,11.27
2022-11-08T11:03:36.395Z,14.95
2022-11-08T11:06:23.075Z,11.57
2022-11-08T11:08:55.854Z,11.15
2022-11-08T11:11:27.282Z,10.48
2022-11-08T11:14:21.779Z,10.32
2022-11-08T11:17:02.911Z,10.55
2022-11-08T11:19:30.502Z,11.40
2022-11-08T11:22:07.954Z,11.80
2022-11-08T11:24:49.888Z,12.38
2022-11-08T11:27:35.067Z,8.88
2022-11-08T11:30:24.589Z,9.68
2022-11-08T11:33:05.237Z,10.50
2022-11-08T11:35:44.364Z,14.93
2022-11-08T11:38:40.955Z,11.45
2022-11-08T11:41:15.664Z,11.02
2022-11-08T11:44:00.613Z,10.00
2022-11-08T11:46:41.719Z,11.63
2022-11-08T11:49:16.855Z,10.98
2022-11-08T11:51:43.939Z,9.40
2022-11-08T11:54:15.065Z,9.95
2022-11-08T11:56:51.651Z,11.32
2022-11-08T11:59:41.232Z,13.20
2022-11-08T12:02:25.925Z,12.30
2022-11-08T12:05:00.372Z,9.48
2022-11-08T12:07:30.397Z,10.20
2022-11-08T12:10:24.272Z,9.63
2022-11-08T12:13:12.391Z,8.30
2022-11-08T12:15:45.073Z,10.63
2022-11-08T12:18:42.776Z,9.13
2022-11-08T12:21:15.087Z,12.70
2022-11-08T12:23:48.762Z,8.55
2022-11-08T12:26:41.543Z,8.13
2022-11-08T12:29:24.317Z,8.43
2022-11-08T12:32:09.997Z,7.40
2022-11-08T12:35:16.462Z,10.00
2022-11-08T12:38:12.989Z,13.07
2022-11-08T12:41:08.477Z,9.80
2022-11-08T12:43:46.786Z,13.02
2022-11-08T12:46:19.455Z,10.52
2022-11-08T12:49:35.244Z,11.98
2022-11-08T12:52:29.241Z,10.20
2022-11-08T12:55:03.408Z,11.32
2022-11-08T12:57:31.341Z,11.65
2022-11-08T13:00:06.767Z,16.38
2022-11-08T13:02:38.388Z,9.63
2022-11-08T13:05:39.270Z,12.48
2022-11-08T13:08:30.486Z,11.57
2022-11-08T13:11:11.847Z,11.50
2022-11-08T13:14:01.510Z,16.00
2022-11-08T13:16:40.249Z,13.32
2022-11-08T13:19:26.932Z,9.63
2022-11-08T13:21:54.367Z,10.48
2022-11-08T13:24:43.309Z,14.52
2022-11-08T13:27:23.595Z,13.68
2022-11-08T13:29:52.335Z,13.65
2022-11-08T13:32:32.403Z,11.63
2022-11-08T13:35:09.144Z,15.02
2022-11-08T13:37:47.324Z,13.50
2022-11-08T13:40:32.053Z,12.65
2022-11-08T13:43:21.959Z,15.10
2022-11-08T13:45:52.999Z,17.73
2022-11-08T13:48:28.867Z,10.48
2022-11-08T13:51:26.529Z,11.35
2022-11-08T13:54:13.572Z,14.10
2022-11-08T13:56:58.881Z,13.68
2022-11-08T13:59:52.147Z,13.68
2022-11-08T14:02:25.129Z,11.52
2022-11-08T14:04:53.995Z,14.60
2022-11-08T14:07:30.236Z,13.63
2022-11-08T14:10:13.461Z,13.02
2022-11-08T14:13:12.797Z,9.48
2022-11-08T14:15:58.269Z,15.32
2022-11-08T14:18:33.686Z,14.40
2022-11-08T14:21:05.322Z,16.90
2022-11-08T14:23:37.939Z,13.18
2022-11-08T14:26:15.502Z,13.63
2022-11-08T14:28:47.317Z,12.80
2022-11-08T14:31:31.659Z,16.20
2022-11-08T14:34:00.162Z,15.85
2022-11-08T14:36:29.546Z,18.70
2022-11-08T14:39:03.975Z,11.70
2022-11-08T14:41:34.025Z,14.60
2022-11-08T14:44:02.837Z,17.75
2022-11-08T14:46:31.534Z,14.85
2022-11-08T14:48:58.580Z,11.38
2022-11-08T14:51:26.501Z,11.75
2022-11-08T14:53:54.834Z,16.17
2022-11-08T14:56:26.911Z,14.93
2022-11-08T14:58:55.372Z,11.02
2022-11-08T15:01:27.152Z,15.18
2022-11-08T15:04:01.597Z,13.10
2022-11-08T15:06:39.638Z,18.85
2022-11-08T15:09:07.899Z,19.00
2022-11-08T15:11:39.225Z,16.38
2022-11-08T15:14:09.744Z,13.95
2022-11-08T15:16:45.218Z,14.63
2022-11-08T15:19:31.859Z,15.95
2022-11-08T15:22:00.634Z,16.90
2022-11-08T15:24:41.098Z,20.08
2022-11-08T15:27:17.225Z,15.77
2022-11-08T15:30:06.788Z,15.23
2022-11-08T15:32:36.813Z,14.27
2022-11-08T15:35:05.533Z,14.70
2022-11-08T15:37:36.896Z,12.32
2022-11-08T15:40:49.564Z,15.50
2022-11-08T15:43:31.817Z,12.00
2022-11-08T15:46:04.094Z,24.52
2022-11-08T15:48:31.806Z,20.58
2022-11-08T15:50:59.073Z,15.10
2022-11-08T15:53:27.457Z,19.55
2022-11-08T15:56:01.795Z,12.75
2022-11-08T15:58:30.614Z,14.82
2022-11-08T16:01:02.112Z,16.00
2022-11-08T16:03:29.667Z,15.32
2022-11-08T16:05:56.997Z,14.10
2022-11-08T16:08:24.284Z,16.38
2022-11-08T16:10:53.696Z,13.80
2022-11-08T16:13:31.599Z,16.80
2022-11-08T16:15:59.940Z,18.88
2022-11-08T16:18:27.821Z,16.33
2022-11-08T16:20:54.732Z,13.98
2022-11-08T16:23:21.573Z,19.67
2022-11-08T16:25:51.881Z,17.45
2022-11-08T16:28:34.136Z,17.52
2022-11-08T16:31:02.965Z,17.48
2022-11-08T16:33:32.420Z,20.10
2022-11-08T16:36:02.448Z,23.65
2022-11-08T16:38:39.100Z,18.98
2022-11-08T16:41:06.151Z,17.70
2022-11-08T16:43:33.424Z,18.48
2022-11-08T16:46:06.244Z,19.75
2022-11-08T16:48:36.561Z,16.52
2022-11-08T16:51:06.630Z,17.33
2022-11-08T16:53:36.991Z,18.40
2022-11-08T16:56:06.347Z,18.88
2022-11-08T16:58:45.209Z,18.52
2022-11-08T17:01:30.055Z,29.58
2022-11-08T17:03:59.461Z,42.10
2022-11-08T17:06:29.220Z,89.13
2022-11-08T17:08:56.502Z,19.55
2022-11-08T17:11:24.142Z,39.50
2022-11-08T17:13:56.796Z,19.70
2022-11-08T17:16:24.987Z,23.33
2022-11-08T17:18:53.481Z,20.45
2022-11-08T17:21:54.073Z,23.30
2022-11-08T17:24:13.567Z,20.38
2022-11-08T17:26:42.714Z,21.05
2022-11-08T17:29:11.905Z,20.90
2022-11-08T17:31:38.885Z,21.10
2022-11-08T17:34:05.838Z,21.08
2022-11-08T17:36:32.806Z,24.02
2022-11-08T17:39:00.258Z,25.10
2022-11-08T17:41:28.356Z,27.98
2022-11-08T17:43:56.484Z,28.25
2022-11-08T17:46:25.605Z,27.42
2022-11-08T17:48:52.931Z,25.55
2022-11-08T17:51:19.963Z,30.30
2022-11-08T17:53:48.837Z,27.25
2022-11-08T17:56:21.370Z,27.65
2022-11-08T17:58:48.700Z,26.02
2022-11-08T18:01:16.669Z,23.92
2022-11-08T18:03:43.741Z,24.42
2022-11-08T18:06:16.519Z,25.88
2022-11-08T18:08:43.499Z,24.17
2022-11-08T18:11:10.462Z,29.08
2022-11-08T18:13:38.592Z,25.65
2022-11-08T18:16:17.166Z,23.55
2022-11-08T18:18:47.229Z,25.50
2022-11-08T18:21:17.282Z,23.92
2022-11-08T18:23:48.638Z,25.45
2022-11-08T18:26:23.553Z,29.55
2022-11-08T18:28:50.880Z,28.50
2022-11-08T18:31:23.169Z,29.98
2022-11-08T18:33:50.742Z,25.88
2022-11-08T18:36:23.789Z,24.17
2022-11-08T18:38:52.213Z,32.08
2022-11-08T18:41:22.778Z,27.50
2022-11-08T18:43:49.883Z,33.85
2022-11-08T18:46:19.104Z,28.83
2022-11-08T18:48:46.386Z,29.85
2022-11-08T18:51:14.794Z,28.77
2022-11-08T18:53:43.578Z,30.63
2022-11-08T18:56:20.793Z,27.70
2022-11-08T18:58:48.401Z,26.55
2022-11-08T19:01:16.086Z,28.55
2022-11-08T19:03:49.003Z,30.17
2022-11-08T19:06:15.919Z,29.38
2022-11-08T19:08:42.835Z,28.55
2022-11-08T19:11:12.074Z,31.03
2022-11-08T19:13:40.605Z,30.53
2022-11-08T19:16:16.425Z,32.10
2022-11-08T19:18:47.035Z,35.20
2022-11-08T19:21:16.425Z,36.42
2022-11-08T19:23:46.526Z,34.75
2022-11-08T19:26:19.032Z,35.50
2022-11-08T19:28:46.503Z,32.00
2022-11-08T19:31:21.978Z,32.77
2022-11-08T19:33:52.251Z,30.93
2022-11-08T19:36:25.189Z,33.10
2022-11-08T19:38:54.121Z,34.77
2022-11-08T19:41:23.425Z,32.77
2022-11-08T19:43:52.041Z,30.75
2022-11-08T19:46:29.408Z,31.02
2022-11-08T19:48:57.579Z,34.70
2022-11-08T19:51:28.148Z,32.13
2022-11-08T19:54:00.500Z,33.95
2022-11-08T19:56:43.754Z,36.15
2022-11-08T19:59:17.414Z,33.93
2022-11-08T20:01:46.209Z,37.20
2022-11-08T20:04:15.107Z,36.93
2022-11-08T20:06:42.550Z,34.78
2022-11-08T20:09:10.926Z,34.80
2022-11-08T20:11:41.819Z,34.53
2022-11-08T20:14:11.454Z,35.90
2022-11-08T20:16:42.121Z,37.03
2022-11-08T20:19:15.217Z,33.53
2022-11-08T20:21:45.792Z,31.43
2022-11-08T20:24:13.596Z,36.17
2022-11-08T20:26:41.483Z,38.03
2022-11-08T20:29:10.994Z,42.03
2022-11-08T20:31:38.734Z,35.40
2022-11-08T20:34:09.930Z,37.27
2022-11-08T20:36:38.024Z,39.07
2022-11-08T20:39:07.973Z,43.40
2022-11-08T20:41:37.986Z,37.07
2022-11-08T20:44:06.346Z,34.75
2022-11-08T20:46:34.267Z,37.10
2022-11-08T20:49:03.343Z,39.53
2022-11-08T20:51:31.730Z,37.50
2022-11-08T20:54:00.189Z,37.50
2022-11-08T20:56:28.014Z,35.53
2022-11-08T20:58:55.142Z,36.63
2022-11-08T21:01:24.725Z,37.87
2022-11-08T21:03:52.553Z,39.10
2022-11-08T21:06:24.849Z,38.90
2022-11-08T21:09:03.017Z,44.80
2022-11-08T21:11:34.518Z,43.80
2022-11-08T21:14:02.953Z,44.83
2022-11-08T21:16:42.377Z,42.60
2022-11-08T21:19:15.762Z,46.13
2022-11-08T21:21:46.234Z,48.57
2022-11-08T21:24:17.236Z,47.30
2022-11-08T21:26:45.479Z,41.20
2022-11-08T21:29:14.563Z,41.10
2022-11-08T21:31:41.481Z,52.03
2022-11-08T21:34:09.821Z,39.43
2022-11-08T21:36:37.171Z,43.50
2022-11-08T21:39:05.103Z,43.93
2022-11-08T21:41:32.008Z,43.10
2022-11-08T21:44:00.044Z,39.73
2022-11-08T21:46:28.717Z,46.37
2022-11-08T21:49:00.720Z,45.97
2022-11-08T21:51:31.915Z,42.20
2022-11-08T21:54:01.420Z,45.50
2022-11-08T21:56:30.758Z,54.60
2022-11-08T21:59:00.183Z,42.47
2022-11-08T22:01:30.534Z,47.27
2022-11-08T22:03:59.300Z,45.53
2022-11-08T22:06:29.532Z,46.87
2022-11-08T22:08:56.686Z,51.90
2022-11-08T22:11:24.027Z,46.60
2022-11-08T22:13:51.035Z,44.87
2022-11-08T22:16:19.133Z,46.87
2022-11-08T22:21:39.517Z,47.60
2022-11-08T22:24:13.795Z,47.50
2022-11-08T22:26:42.004Z,49.10
2022-11-08T22:29:10.196Z,48.77
2022-11-08T22:31:37.556Z,48.47
2022-11-08T22:34:06.857Z,51.40
2022-11-08T22:36:38.694Z,46.67
2022-11-08T22:39:11.776Z,46.87
2022-11-08T22:41:42.020Z,47.67
2022-11-08T22:44:11.804Z,46.77
2022-11-08T22:46:42.400Z,46.00
2022-11-08T22:49:10.812Z,45.00
2022-11-08T22:51:39.401Z,44.93
2022-11-08T22:54:07.377Z,45.63
2022-11-08T22:56:36.797Z,48.47
2022-11-08T22:59:04.657Z,46.97
2022-11-08T23:01:31.795Z,46.10
2022-11-08T23:04:00.169Z,46.00
2022-11-08T23:06:27.155Z,46.27
2022-11-08T23:08:54.387Z,45.37
2022-11-08T23:11:39.958Z,45.33
2022-11-08T23:14:29.993Z,47.33
2022-11-08T23:17:04.366Z,47.13
2022-11-08T23:19:52.830Z,45.30
2022-11-08T23:22:41.634Z,43.07
2022-11-08T23:25:12.059Z,45.17
2022-11-08T23:27:57.771Z,44.57
2022-11-08T23:30:43.203Z,45.30
2022-11-08T23:33:10.748Z,42.47
2022-11-08T23:35:45.077Z,43.70
2022-11-08T23:38:20.181Z,47.47
2022-11-08T23:41:11.841Z,45.23
2022-11-08T23:43:57.342Z,45.77
2022-11-08T23:49:12.049Z,46.57
2022-11-08T23:51:41.439Z,41.13
2022-11-08T23:54:09.158Z,49.77
2022-11-08T23:57:39.398Z,46.40
